Redding, Connecticut
Current Conditions -  °F | °C
As of 8:24 PM on Thursday 27 Nov 2014 (Local Time) from KDXR Reporting Station
Overcast Overcast  
Wind Chill: 26°   Ceiling: 3000
Heat Index: 32°   Visibility: 10mi
Dew Point: 26°   Wind: 6mph
Humidity: 79%   Direction: 320°NW
Pressure: 30.02"   Gusts: NA
Location:  41.3°N, 73.38°W
Report Text: KDXR 280024Z 32005KT 10SM OVC030 00/M03 A3002 RMK AO2 T00001033
Loading
Personal Weather Stations






























Interactive Weather Map New forecast layout! Learn more

10-Day Weather Forecast

Advertisements
Track Severe Weather on mobile